createdAt,value
2016-06-02T00:00:08.938Z,945.2
2016-06-02T00:00:18.891Z,945.1
2016-06-02T00:00:28.926Z,945.2
2016-06-02T00:00:38.910Z,945.1
2016-06-02T00:00:48.894Z,945.2
2016-06-02T00:00:58.754Z,945.2
2016-06-02T00:01:08.926Z,945.2
2016-06-02T00:01:18.879Z,945.2
2016-06-02T00:01:28.741Z,945.2
2016-06-02T00:01:38.741Z,945.2
2016-06-02T00:01:48.897Z,945.2
2016-06-02T00:01:58.585Z,945.2
2016-06-02T00:02:08.741Z,945.2
2016-06-02T00:02:18.882Z,945.2
2016-06-02T00:02:28.885Z,945.3
2016-06-02T00:02:38.885Z,945.3
2016-06-02T00:02:48.885Z,945.3
2016-06-02T00:02:58.885Z,945.3
2016-06-02T00:03:08.869Z,945.4
2016-06-02T00:03:18.869Z,945.3
2016-06-02T00:03:28.871Z,945.3
2016-06-02T00:03:38.871Z,945.3
2016-06-02T00:03:48.715Z,945.3
2016-06-02T00:03:58.715Z,945.4
2016-06-02T00:04:08.856Z,945.3
2016-06-02T00:04:18.715Z,945.3
2016-06-02T00:04:28.718Z,945.3
2016-06-02T00:04:38.843Z,945.3
2016-06-02T00:04:48.859Z,945.3
2016-06-02T00:04:58.843Z,945.3
2016-06-02T00:05:08.687Z,945.3
2016-06-02T00:05:18.546Z,945.2
2016-06-02T00:05:28.673Z,945.3
2016-06-02T00:05:38.704Z,945.4
2016-06-02T00:05:48.829Z,945.3
2016-06-02T00:05:58.814Z,945.3
2016-06-02T00:06:08.845Z,945.3
2016-06-02T00:06:18.673Z,945.4
2016-06-02T00:06:28.692Z,945.3
2016-06-02T00:06:38.707Z,945.3
2016-06-02T00:06:48.832Z,945.3
2016-06-02T00:06:58.660Z,945.3
2016-06-02T00:07:08.832Z,945.3
2016-06-02T00:07:18.817Z,945.3
2016-06-02T00:07:28.520Z,945.3
2016-06-02T00:07:38.679Z,945.4
2016-06-02T00:07:48.820Z,945.4
2016-06-02T00:07:58.820Z,945.4
2016-06-02T00:08:08.820Z,945.3
2016-06-02T00:08:18.804Z,945.4
2016-06-02T00:08:28.663Z,945.3
2016-06-02T00:08:38.495Z,945.3
2016-06-02T00:08:48.823Z,945.3
2016-06-02T00:08:58.495Z,945.3
2016-06-02T00:09:08.807Z,945.3
2016-06-02T00:09:19.245Z,945.4
2016-06-02T00:09:29.544Z,945.3
2016-06-02T00:09:39.810Z,945.4
2016-06-02T00:09:48.888Z,945.4
2016-06-02T00:09:59.310Z,945.3
2016-06-02T00:10:09.482Z,945.3
2016-06-02T00:10:18.669Z,945.3
2016-06-02T00:10:29.484Z,945.3
2016-06-02T00:10:38.671Z,945.4
2016-06-02T00:10:48.781Z,945.4
2016-06-02T00:10:58.765Z,945.3
2016-06-02T00:11:08.796Z,945.3
2016-06-02T00:11:18.765Z,945.3
2016-06-02T00:11:28.765Z,945.3
2016-06-02T00:11:38.752Z,945.4
2016-06-02T00:11:48.783Z,945.3
2016-06-02T00:11:58.752Z,945.3
2016-06-02T00:12:08.767Z,945.4
2016-06-02T00:12:18.752Z,945.3
2016-06-02T00:12:28.767Z,945.2
2016-06-02T00:12:38.459Z,945.3
2016-06-02T00:12:48.756Z,945.4
2016-06-02T00:12:58.756Z,945.3
2016-06-02T00:13:08.756Z,945.3
2016-06-02T00:13:18.427Z,945.2
2016-06-02T00:13:28.756Z,945.3
2016-06-02T00:13:38.726Z,945.2
2016-06-02T00:13:48.601Z,945.2
2016-06-02T00:13:58.726Z,945.3
2016-06-02T00:14:08.742Z,945.2
2016-06-02T00:14:18.570Z,945.3
2016-06-02T00:14:28.726Z,945.3
2016-06-02T00:14:38.729Z,945.2
2016-06-02T00:14:48.573Z,945.2
2016-06-02T00:14:58.589Z,945.3
2016-06-02T00:15:08.417Z,945.3
2016-06-02T00:15:18.557Z,945.3
2016-06-02T00:15:28.729Z,945.3
2016-06-02T00:15:38.559Z,945.3
2016-06-02T00:15:48.403Z,945.2
2016-06-02T00:15:58.716Z,945.2
2016-06-02T00:16:08.559Z,945.2
2016-06-02T00:16:18.700Z,945.3
2016-06-02T00:16:28.731Z,945.2
2016-06-02T00:16:38.547Z,945.2
2016-06-02T00:16:48.719Z,945.2
2016-06-02T00:16:58.687Z,945.3
2016-06-02T00:17:08.531Z,945.3
2016-06-02T00:17:18.547Z,945.3
2016-06-02T00:17:28.687Z,945.3
2016-06-02T00:17:38.675Z,945.3
2016-06-02T00:17:48.519Z,945.3
2016-06-02T00:17:58.706Z,945.2
2016-06-02T00:18:08.519Z,945.3
2016-06-02T00:18:18.362Z,945.3
2016-06-02T00:18:28.534Z,945.2
2016-06-02T00:18:38.662Z,945.2
2016-06-02T00:18:48.678Z,945.2
2016-06-02T00:18:58.678Z,945.2
2016-06-02T00:19:08.662Z,945.3
2016-06-02T00:19:18.365Z,945.3
2016-06-02T00:19:28.522Z,945.3
2016-06-02T00:19:38.649Z,945.2
2016-06-02T00:19:48.680Z,945.3
2016-06-02T00:19:59.242Z,945.2
2016-06-02T00:20:08.680Z,945.2
2016-06-02T00:20:18.664Z,945.3
2016-06-02T00:20:28.633Z,945.3
2016-06-02T00:20:38.667Z,945.3
2016-06-02T00:20:48.652Z,945.2
2016-06-02T00:20:58.636Z,945.3
2016-06-02T00:21:08.652Z,945.2
2016-06-02T00:21:18.636Z,945.2
2016-06-02T00:21:28.652Z,945.3
2016-06-02T00:21:38.483Z,945.2
2016-06-02T00:21:48.639Z,945.2
2016-06-02T00:21:58.623Z,945.2
2016-06-02T00:22:08.623Z,945.3
2016-06-02T00:22:18.483Z,945.2
2016-06-02T00:22:28.451Z,945.3
2016-06-02T00:22:38.625Z,945.3
2016-06-02T00:22:48.313Z,945.2
2016-06-02T00:22:58.469Z,945.2
2016-06-02T00:23:08.610Z,945.2
2016-06-02T00:23:18.313Z,945.3
2016-06-02T00:23:28.641Z,945.3
2016-06-02T00:23:38.613Z,945.4
2016-06-02T00:23:48.456Z,945.3
2016-06-02T00:23:58.613Z,945.3
2016-06-02T00:24:08.597Z,945.3
2016-06-02T00:24:18.706Z,945.3
2016-06-02T00:24:28.597Z,945.3
2016-06-02T00:24:38.569Z,945.2
2016-06-02T00:24:50.272Z,945.2
2016-06-02T00:24:58.694Z,945.3
2016-06-02T00:25:08.897Z,945.2
2016-06-02T00:25:19.444Z,945.3
2016-06-02T00:25:29.006Z,945.3
2016-06-02T00:25:38.665Z,945.3
2016-06-02T00:25:48.446Z,945.3
2016-06-02T00:25:58.571Z,945.2
2016-06-02T00:26:08.555Z,945.3
2016-06-02T00:26:18.586Z,945.3
2016-06-02T00:26:28.571Z,945.2
2016-06-02T00:26:38.418Z,945.3
2016-06-02T00:26:48.574Z,945.2
2016-06-02T00:26:58.433Z,945.2
2016-06-02T00:27:08.277Z,945.3
2016-06-02T00:27:18.574Z,945.3
2016-06-02T00:27:28.277Z,945.2
2016-06-02T00:27:38.405Z,945.2
2016-06-02T00:27:48.561Z,945.3
2016-06-02T00:27:58.561Z,945.2
2016-06-02T00:28:08.530Z,945.3
2016-06-02T00:28:18.389Z,945.3
2016-06-02T00:28:28.561Z,945.3
2016-06-02T00:28:38.391Z,945.3
2016-06-02T00:28:48.251Z,945.3
2016-06-02T00:28:58.532Z,945.3
2016-06-02T00:29:08.376Z,945.3
2016-06-02T00:29:18.532Z,945.3
2016-06-02T00:29:28.235Z,945.2
2016-06-02T00:29:38.536Z,945.3
2016-06-02T00:29:48.536Z,945.3
2016-06-02T00:29:58.520Z,945.3
2016-06-02T00:30:08.395Z,945.3
2016-06-02T00:30:18.239Z,945.3
2016-06-02T00:30:28.567Z,945.2
2016-06-02T00:30:38.538Z,945.2
2016-06-02T00:30:48.522Z,945.3
2016-06-02T00:30:58.397Z,945.3
2016-06-02T00:31:08.538Z,945.3
2016-06-02T00:31:18.366Z,945.2
2016-06-02T00:31:28.366Z,945.3
2016-06-02T00:31:38.524Z,945.3
2016-06-02T00:31:48.524Z,945.3
2016-06-02T00:31:58.540Z,945.3
2016-06-02T00:32:08.493Z,945.3
2016-06-02T00:32:18.368Z,945.3
2016-06-02T00:32:28.493Z,945.2
2016-06-02T00:32:38.496Z,945.3
2016-06-02T00:32:48.496Z,945.3
2016-06-02T00:32:58.480Z,945.3
2016-06-02T00:33:08.355Z,945.3
2016-06-02T00:33:18.480Z,945.3
2016-06-02T00:33:28.184Z,945.3
2016-06-02T00:33:38.312Z,945.2
2016-06-02T00:33:48.327Z,945.3
2016-06-02T00:33:58.483Z,945.2
2016-06-02T00:34:08.327Z,945.3
2016-06-02T00:34:18.312Z,945.2
2016-06-02T00:34:28.327Z,945.3
2016-06-02T00:34:38.143Z,945.2
2016-06-02T00:34:48.455Z,945.2
2016-06-02T00:34:58.455Z,945.3
2016-06-02T00:35:08.471Z,945.2
2016-06-02T00:35:18.440Z,945.2
2016-06-02T00:35:28.315Z,945.3
2016-06-02T00:35:38.145Z,945.2
2016-06-02T00:35:48.442Z,945.3
2016-06-02T00:35:58.317Z,945.3
2016-06-02T00:36:08.457Z,945.2
2016-06-02T00:36:18.442Z,945.3
2016-06-02T00:36:28.285Z,945.2
2016-06-02T00:36:38.445Z,945.3
2016-06-02T00:36:48.460Z,945.2
2016-06-02T00:36:58.429Z,945.3
2016-06-02T00:37:08.429Z,945.2
2016-06-02T00:37:18.445Z,945.3
2016-06-02T00:37:28.288Z,945.3
2016-06-02T00:37:38.291Z,945.2
2016-06-02T00:37:48.104Z,945.2
2016-06-02T00:37:58.432Z,945.2
2016-06-02T00:38:08.260Z,945.2
2016-06-02T00:38:18.401Z,945.2
2016-06-02T00:38:28.416Z,945.3
2016-06-02T00:38:38.419Z,945.3
2016-06-02T00:38:48.263Z,945.3
2016-06-02T00:38:58.263Z,945.3
2016-06-02T00:39:08.419Z,945.3
2016-06-02T00:39:18.404Z,945.3
2016-06-02T00:39:29.060Z,945.2
2016-06-02T00:39:38.578Z,945.3
2016-06-02T00:39:49.765Z,945.3
2016-06-02T00:39:58.874Z,945.3
2016-06-02T00:40:09.656Z,945.3
2016-06-02T00:40:19.031Z,945.3
2016-06-02T00:40:28.609Z,945.2
2016-06-02T00:40:38.268Z,945.3
2016-06-02T00:40:48.237Z,945.3
2016-06-02T00:40:58.362Z,945.3
2016-06-02T00:41:08.377Z,945.3
2016-06-02T00:41:18.237Z,945.3
2016-06-02T00:41:28.377Z,945.3
2016-06-02T00:41:38.364Z,945.3
2016-06-02T00:41:48.379Z,945.3
2016-06-02T00:41:58.348Z,945.3
2016-06-02T00:42:08.364Z,945.3
2016-06-02T00:42:18.379Z,945.2
2016-06-02T00:42:28.348Z,945.3
2016-06-02T00:42:38.351Z,945.3
2016-06-02T00:42:48.226Z,945.3
2016-06-02T00:42:58.226Z,945.3
2016-06-02T00:43:08.336Z,945.3
2016-06-02T00:43:18.351Z,945.3
2016-06-02T00:43:28.351Z,945.3
2016-06-02T00:43:38.057Z,945.3
2016-06-02T00:43:48.339Z,945.3
2016-06-02T00:43:58.182Z,945.3
2016-06-02T00:44:08.339Z,945.3
2016-06-02T00:44:18.339Z,945.3
2016-06-02T00:44:28.182Z,945.3
2016-06-02T00:44:38.326Z,945.3
2016-06-02T00:44:48.342Z,945.3
2016-06-02T00:44:58.201Z,945.3
2016-06-02T00:45:08.326Z,945.3
2016-06-02T00:45:18.326Z,945.3
2016-06-02T00:45:28.310Z,945.3
2016-06-02T00:45:38.172Z,945.3
2016-06-02T00:45:48.328Z,945.3
2016-06-02T00:45:58.328Z,945.3
2016-06-02T00:46:08.172Z,945.3
2016-06-02T00:46:18.312Z,945.3
2016-06-02T00:46:28.312Z,945.3
2016-06-02T00:46:38.331Z,945.3
2016-06-02T00:46:48.300Z,945.3
2016-06-02T00:46:58.315Z,945.3
2016-06-02T00:47:08.300Z,945.3
2016-06-02T00:47:18.159Z,945.3
2016-06-02T00:47:28.300Z,945.3
2016-06-02T00:47:38.303Z,945.3
2016-06-02T00:47:48.287Z,945.3
2016-06-02T00:47:58.303Z,945.3
2016-06-02T00:48:08.146Z,945.3
2016-06-02T00:48:18.303Z,945.3
2016-06-02T00:48:28.287Z,945.2
2016-06-02T00:48:37.680Z,945.2
2016-06-02T00:48:47.977Z,945.3
2016-06-02T00:48:57.977Z,945.2
2016-06-02T00:49:08.289Z,945.3
2016-06-02T00:49:18.258Z,945.3
2016-06-02T00:49:28.273Z,945.3
2016-06-02T00:49:38.261Z,945.3
2016-06-02T00:49:47.823Z,945.3
2016-06-02T00:49:58.261Z,945.3
2016-06-02T00:50:08.245Z,945.3
2016-06-02T00:50:18.276Z,945.2
2016-06-02T00:50:28.105Z,945.3
2016-06-02T00:50:38.092Z,945.2
2016-06-02T00:50:48.108Z,945.3
2016-06-02T00:50:58.092Z,945.3
2016-06-02T00:51:08.076Z,945.3
2016-06-02T00:51:18.248Z,945.3
2016-06-02T00:51:28.092Z,945.3
2016-06-02T00:51:38.236Z,945.3
2016-06-02T00:51:48.095Z,945.4
2016-06-02T00:51:58.251Z,945.3
2016-06-02T00:52:08.220Z,945.3
2016-06-02T00:52:17.814Z,945.3
2016-06-02T00:52:28.236Z,945.3
2016-06-02T00:52:38.066Z,945.3
2016-06-02T00:52:48.066Z,945.2
2016-06-02T00:52:58.066Z,945.3
2016-06-02T00:53:08.222Z,945.3
2016-06-02T00:53:18.206Z,945.3
2016-06-02T00:53:28.206Z,945.3
2016-06-02T00:53:38.225Z,945.3
2016-06-02T00:53:48.069Z,945.3
2016-06-02T00:53:58.053Z,945.3
2016-06-02T00:54:08.225Z,945.3
2016-06-02T00:54:18.194Z,945.4
2016-06-02T00:54:28.709Z,945.3
2016-06-02T00:54:38.447Z,945.3
2016-06-02T00:54:48.181Z,945.4
2016-06-02T00:54:59.384Z,945.3
2016-06-02T00:55:09.056Z,945.3
2016-06-02T00:55:19.212Z,945.3
2016-06-02T00:55:28.306Z,945.3
2016-06-02T00:55:39.246Z,945.3
2016-06-02T00:55:48.199Z,945.3
2016-06-02T00:55:58.183Z,945.4
2016-06-02T00:56:08.027Z,945.4
2016-06-02T00:56:18.199Z,945.3
2016-06-02T00:56:28.167Z,945.3
2016-06-02T00:56:38.170Z,945.3
2016-06-02T00:56:48.030Z,945.2
2016-06-02T00:56:58.186Z,945.3
2016-06-02T00:57:08.045Z,945.3
2016-06-02T00:57:17.858Z,945.3
2016-06-02T00:57:28.170Z,945.3
2016-06-02T00:57:38.157Z,945.3
2016-06-02T00:57:47.985Z,945.4
2016-06-02T00:57:58.001Z,945.3
2016-06-02T00:58:08.001Z,945.3
2016-06-02T00:58:18.157Z,945.3
2016-06-02T00:58:28.016Z,945.3
2016-06-02T00:58:38.129Z,945.3
2016-06-02T00:58:48.160Z,945.4
2016-06-02T00:58:58.129Z,945.3
2016-06-02T00:59:08.129Z,945.3
2016-06-02T00:59:18.160Z,945.4
2016-06-02T00:59:27.972Z,945.4
2016-06-02T00:59:38.007Z,945.4
2016-06-02T00:59:48.116Z,945.4
2016-06-02T00:59:58.132Z,945.5
2016-06-02T01:00:08.116Z,945.4
2016-06-02T01:00:17.975Z,945.5
2016-06-02T01:00:28.147Z,945.4
2016-06-02T01:00:38.119Z,945.4
2016-06-02T01:00:48.150Z,945.4
2016-06-02T01:00:57.947Z,945.4
2016-06-02T01:01:08.103Z,945.4
2016-06-02T01:01:18.135Z,945.5
2016-06-02T01:01:28.103Z,945.3
2016-06-02T01:01:37.949Z,945.3
2016-06-02T01:01:48.121Z,945.3
2016-06-02T01:01:57.949Z,945.4
2016-06-02T01:02:08.105Z,945.4
2016-06-02T01:02:18.074Z,945.4
2016-06-02T01:02:27.949Z,945.5
2016-06-02T01:02:38.108Z,945.3
2016-06-02T01:02:48.077Z,945.3
2016-06-02T01:02:58.093Z,945.4
2016-06-02T01:03:08.093Z,945.4
2016-06-02T01:03:18.077Z,945.3
2016-06-02T01:03:28.093Z,945.4
2016-06-02T01:03:38.111Z,945.3
2016-06-02T01:03:48.080Z,945.4
2016-06-02T01:03:58.064Z,945.4
2016-06-02T01:04:08.096Z,945.3
2016-06-02T01:04:18.064Z,945.5
2016-06-02T01:04:28.064Z,945.3
2016-06-02T01:04:37.926Z,945.3
2016-06-02T01:04:48.066Z,945.3
2016-06-02T01:04:58.066Z,945.4
2016-06-02T01:05:08.082Z,945.3
2016-06-02T01:05:17.910Z,945.4
2016-06-02T01:05:27.910Z,945.4
2016-06-02T01:05:38.069Z,945.4
2016-06-02T01:05:47.898Z,945.4
2016-06-02T01:05:57.898Z,945.4
2016-06-02T01:06:08.069Z,945.4
2016-06-02T01:06:17.913Z,945.4
2016-06-02T01:06:28.038Z,945.3
2016-06-02T01:06:38.041Z,945.4
2016-06-02T01:06:48.057Z,945.4
2016-06-02T01:06:58.041Z,945.4
2016-06-02T01:07:08.026Z,945.3
2016-06-02T01:07:18.057Z,945.3
2016-06-02T01:07:28.026Z,945.3
2016-06-02T01:07:37.762Z,945.3
2016-06-02T01:07:48.043Z,945.4
2016-06-02T01:07:57.871Z,945.4
2016-06-02T01:08:08.012Z,945.3
2016-06-02T01:08:17.996Z,945.3
2016-06-02T01:08:28.012Z,945.3
2016-06-02T01:08:38.031Z,945.2
2016-06-02T01:08:47.999Z,945.3
2016-06-02T01:08:58.031Z,945.3
2016-06-02T01:09:07.859Z,945.3
2016-06-02T01:09:18.531Z,945.3
2016-06-02T01:09:27.812Z,945.2
2016-06-02T01:09:38.018Z,945.2
2016-06-02T01:09:48.034Z,945.3
2016-06-02T01:09:58.221Z,945.2
2016-06-02T01:10:08.190Z,945.3
2016-06-02T01:10:18.330Z,945.3
2016-06-02T01:10:28.174Z,945.2
2016-06-02T01:10:40.082Z,945.2
2016-06-02T01:10:47.832Z,945.2
2016-06-02T01:10:57.989Z,945.2
2016-06-02T01:11:07.989Z,945.3
2016-06-02T01:11:17.957Z,945.2
2016-06-02T01:11:27.832Z,945.2
2016-06-02T01:11:37.992Z,945.3
2016-06-02T01:11:47.976Z,945.3
2016-06-02T01:11:57.835Z,945.2
2016-06-02T01:12:07.648Z,945.3
2016-06-02T01:12:17.976Z,945.3
2016-06-02T01:12:27.976Z,945.3
2016-06-02T01:12:37.807Z,945.2
2016-06-02T01:12:47.823Z,945.2
2016-06-02T01:12:57.963Z,945.2
2016-06-02T01:13:07.948Z,945.2
2016-06-02T01:13:17.963Z,945.2
2016-06-02T01:13:27.948Z,945.2
2016-06-02T01:13:37.810Z,945.2
2016-06-02T01:13:47.810Z,945.2
2016-06-02T01:13:57.935Z,945.3
2016-06-02T01:14:07.951Z,945.2
2016-06-02T01:14:17.795Z,945.3
2016-06-02T01:14:27.935Z,945.2
2016-06-02T01:14:37.923Z,945.2
2016-06-02T01:14:47.641Z,945.2
2016-06-02T01:14:57.798Z,945.2
2016-06-02T01:15:07.469Z,945.2
2016-06-02T01:15:17.782Z,945.2
2016-06-02T01:15:27.938Z,945.2
2016-06-02T01:15:37.940Z,945.2
2016-06-02T01:15:47.909Z,945.2
2016-06-02T01:15:57.925Z,945.2
2016-06-02T01:16:07.784Z,945.2
2016-06-02T01:16:17.784Z,945.1
2016-06-02T01:16:27.596Z,945.3
2016-06-02T01:16:37.615Z,945.1
2016-06-02T01:16:47.912Z,945.2
2016-06-02T01:16:57.912Z,945.1
2016-06-02T01:17:07.756Z,945.1
2016-06-02T01:17:17.881Z,945.2
2016-06-02T01:17:27.756Z,945.2
2016-06-02T01:17:37.759Z,945.1
2016-06-02T01:17:47.743Z,945.2
2016-06-02T01:17:57.884Z,945.3
2016-06-02T01:18:07.743Z,945.1
2016-06-02T01:18:17.587Z,945.2
2016-06-02T01:18:27.571Z,945.2
2016-06-02T01:18:37.886Z,945.2
2016-06-02T01:18:47.886Z,945.1
2016-06-02T01:18:57.433Z,945.2
2016-06-02T01:19:07.870Z,945.2
2016-06-02T01:19:17.901Z,945.1
2016-06-02T01:19:27.870Z,945.1
2016-06-02T01:19:37.717Z,945.2
2016-06-02T01:19:47.717Z,945.2
2016-06-02T01:19:57.904Z,945.3
2016-06-02T01:20:07.701Z,945.2
2016-06-02T01:20:17.857Z,945.1
2016-06-02T01:20:27.717Z,945.2
2016-06-02T01:20:37.860Z,945.1
2016-06-02T01:20:47.860Z,945.1
2016-06-02T01:20:57.704Z,945.2
2016-06-02T01:21:07.860Z,945.2
2016-06-02T01:21:17.532Z,945.2
2016-06-02T01:21:27.845Z,945.2
2016-06-02T01:21:37.862Z,945.2
2016-06-02T01:21:47.831Z,945.2
2016-06-02T01:21:57.675Z,945.2
2016-06-02T01:22:07.847Z,945.2
2016-06-02T01:22:17.675Z,945.2
2016-06-02T01:22:27.675Z,945.2
2016-06-02T01:22:37.709Z,945.2
2016-06-02T01:22:47.678Z,945.2
2016-06-02T01:22:57.819Z,945.2
2016-06-02T01:23:07.834Z,945.3
2016-06-02T01:23:17.819Z,945.2
2016-06-02T01:23:27.834Z,945.2
2016-06-02T01:23:37.509Z,945.2
2016-06-02T01:23:47.822Z,945.2
2016-06-02T01:23:57.665Z,945.2
2016-06-02T01:24:07.665Z,945.2
2016-06-02T01:24:17.665Z,945.2
2016-06-02T01:24:28.368Z,945.2
2016-06-02T01:24:38.200Z,945.1
2016-06-02T01:24:48.340Z,945.2
2016-06-02T01:24:57.668Z,945.3
2016-06-02T01:25:09.621Z,945.2
2016-06-02T01:25:18.434Z,945.2
2016-06-02T01:25:28.825Z,945.2
2016-06-02T01:25:37.827Z,945.2
2016-06-02T01:25:47.655Z,945.2
2016-06-02T01:25:57.639Z,945.3
2016-06-02T01:26:07.795Z,945.1
2016-06-02T01:26:17.795Z,945.2
2016-06-02T01:26:27.780Z,945.2
2016-06-02T01:26:37.642Z,945.2
2016-06-02T01:26:47.783Z,945.2
2016-06-02T01:26:57.798Z,945.2
2016-06-02T01:27:07.626Z,945.3
2016-06-02T01:27:17.767Z,945.2
2016-06-02T01:27:27.611Z,945.3
2016-06-02T01:27:37.770Z,945.3
2016-06-02T01:27:47.754Z,945.3
2016-06-02T01:27:57.786Z,945.2
2016-06-02T01:28:07.739Z,945.3
2016-06-02T01:28:17.754Z,945.3
2016-06-02T01:28:27.598Z,945.2
2016-06-02T01:28:37.756Z,945.3
2016-06-02T01:28:47.585Z,945.2
2016-06-02T01:28:57.600Z,945.3
2016-06-02T01:29:07.616Z,945.3
2016-06-02T01:29:17.741Z,945.3
2016-06-02T01:29:27.600Z,945.3
2016-06-02T01:29:37.744Z,945.3
2016-06-02T01:29:47.431Z,945.2
2016-06-02T01:29:57.759Z,945.2
2016-06-02T01:30:07.728Z,945.3
2016-06-02T01:30:17.728Z,945.2
2016-06-02T01:30:27.728Z,945.3
2016-06-02T01:30:37.731Z,945.3
2016-06-02T01:30:47.731Z,945.3
2016-06-02T01:30:57.716Z,945.2
2016-06-02T01:31:07.731Z,945.3
2016-06-02T01:31:17.575Z,945.3
2016-06-02T01:31:27.731Z,945.2
2016-06-02T01:31:37.718Z,945.3
2016-06-02T01:31:47.577Z,945.2
2016-06-02T01:31:57.733Z,945.2
2016-06-02T01:32:07.546Z,945.2
2016-06-02T01:32:17.702Z,945.2
2016-06-02T01:32:27.546Z,945.2
2016-06-02T01:32:37.689Z,945.2
2016-06-02T01:32:47.721Z,945.3
2016-06-02T01:32:57.689Z,945.2
2016-06-02T01:33:07.689Z,945.2
2016-06-02T01:33:17.705Z,945.2
2016-06-02T01:33:27.674Z,945.3
2016-06-02T01:33:37.692Z,945.3
2016-06-02T01:33:47.239Z,945.2
2016-06-02T01:33:57.708Z,945.2
2016-06-02T01:34:07.552Z,945.2
2016-06-02T01:34:17.520Z,945.2
2016-06-02T01:34:27.536Z,945.3
2016-06-02T01:34:37.507Z,945.3
2016-06-02T01:34:47.663Z,945.3
2016-06-02T01:34:57.679Z,945.2
2016-06-02T01:35:07.522Z,945.3
2016-06-02T01:35:17.382Z,945.3
2016-06-02T01:35:27.507Z,945.2
2016-06-02T01:35:37.650Z,945.3
2016-06-02T01:35:47.650Z,945.2
2016-06-02T01:35:57.666Z,945.2
2016-06-02T01:36:07.666Z,945.2
2016-06-02T01:36:17.510Z,945.2
2016-06-02T01:36:27.494Z,945.2
2016-06-02T01:36:37.653Z,945.3
2016-06-02T01:36:47.653Z,945.2
2016-06-02T01:36:57.669Z,945.2
2016-06-02T01:37:07.638Z,945.1
2016-06-02T01:37:17.669Z,945.2
2016-06-02T01:37:27.325Z,945.3
2016-06-02T01:37:37.640Z,945.1
2016-06-02T01:37:47.484Z,945.2
2016-06-02T01:37:57.624Z,945.3
2016-06-02T01:38:07.624Z,945.2
2016-06-02T01:38:17.624Z,945.2
2016-06-02T01:38:27.468Z,945.3
2016-06-02T01:38:37.658Z,945.2
2016-06-02T01:38:47.455Z,945.2
2016-06-02T01:38:57.455Z,945.2
2016-06-02T01:39:07.596Z,945.2
2016-06-02T01:39:17.612Z,945.2
2016-06-02T01:39:29.080Z,945.2
2016-06-02T01:39:38.005Z,945.2
2016-06-02T01:39:48.630Z,945.2
2016-06-02T01:39:57.490Z,945.3
2016-06-02T01:40:09.286Z,945.2
2016-06-02T01:40:18.724Z,945.2
2016-06-02T01:40:28.083Z,945.2
2016-06-02T01:40:38.055Z,945.2
2016-06-02T01:40:48.118Z,945.3
2016-06-02T01:40:57.602Z,945.2
2016-06-02T01:41:07.586Z,945.2
2016-06-02T01:41:17.430Z,945.3
2016-06-02T01:41:27.586Z,945.2
2016-06-02T01:41:37.573Z,945.3
2016-06-02T01:41:47.588Z,945.3
2016-06-02T01:41:57.604Z,945.3
2016-06-02T01:42:07.416Z,945.3
2016-06-02T01:42:17.588Z,945.2
2016-06-02T01:42:27.432Z,945.3
2016-06-02T01:42:37.576Z,945.3
2016-06-02T01:42:47.560Z,945.3
2016-06-02T01:42:57.576Z,945.3
2016-06-02T01:43:07.263Z,945.3
2016-06-02T01:43:17.263Z,945.3
2016-06-02T01:43:27.560Z,945.4
2016-06-02T01:43:37.422Z,945.3
2016-06-02T01:43:47.391Z,945.3
2016-06-02T01:43:57.391Z,945.3
2016-06-02T01:44:07.547Z,945.3
2016-06-02T01:44:17.407Z,945.3
2016-06-02T01:44:27.532Z,945.3
2016-06-02T01:44:37.393Z,945.3
2016-06-02T01:44:47.549Z,945.3
2016-06-02T01:44:57.378Z,945.3
2016-06-02T01:45:07.518Z,945.3
2016-06-02T01:45:17.565Z,945.3
2016-06-02T01:45:27.221Z,945.3
2016-06-02T01:45:37.537Z,945.4
2016-06-02T01:45:47.552Z,945.3
2016-06-02T01:45:57.365Z,945.3
2016-06-02T01:46:07.521Z,945.4
2016-06-02T01:46:17.521Z,945.3
2016-06-02T01:46:27.365Z,945.3
2016-06-02T01:46:37.508Z,945.3
2016-06-02T01:46:47.539Z,945.4
2016-06-02T01:46:57.351Z,945.3
2016-06-02T01:47:07.351Z,945.4
2016-06-02T01:47:17.523Z,945.4
2016-06-02T01:47:27.492Z,945.3
2016-06-02T01:47:37.370Z,945.4
2016-06-02T01:47:47.511Z,945.4
2016-06-02T01:47:57.526Z,945.4
2016-06-02T01:48:07.495Z,945.5
2016-06-02T01:48:17.182Z,945.4
2016-06-02T01:48:27.495Z,945.5
2016-06-02T01:48:37.482Z,945.5
2016-06-02T01:48:47.498Z,945.5
2016-06-02T01:48:57.482Z,945.3
2016-06-02T01:49:07.498Z,945.4
2016-06-02T01:49:17.310Z,945.5
2016-06-02T01:49:27.482Z,945.4
2016-06-02T01:49:37.469Z,945.4
2016-06-02T01:49:47.172Z,945.4
2016-06-02T01:49:57.469Z,945.5
2016-06-02T01:50:07.469Z,945.4
2016-06-02T01:50:17.469Z,945.5
2016-06-02T01:50:27.453Z,945.4
2016-06-02T01:50:37.331Z,945.4
2016-06-02T01:50:47.440Z,945.5
2016-06-02T01:50:57.472Z,945.4
2016-06-02T01:51:07.315Z,945.5
2016-06-02T01:51:17.300Z,945.4
2016-06-02T01:51:27.456Z,945.5
2016-06-02T01:51:37.459Z,945.5
2016-06-02T01:51:47.428Z,945.4
2016-06-02T01:51:57.318Z,945.4
2016-06-02T01:52:07.287Z,945.4
2016-06-02T01:52:17.287Z,945.4
2016-06-02T01:52:27.443Z,945.5
2016-06-02T01:52:37.446Z,945.5
2016-06-02T01:52:47.431Z,945.5
2016-06-02T01:52:57.259Z,945.5
2016-06-02T01:53:07.446Z,945.5
2016-06-02T01:53:17.431Z,945.5
2016-06-02T01:53:27.431Z,945.6
2016-06-02T01:53:37.417Z,945.5
2016-06-02T01:53:47.120Z,945.5
2016-06-02T01:53:57.292Z,945.6
2016-06-02T01:54:07.417Z,945.5
2016-06-02T01:54:17.120Z,945.6
2016-06-02T01:54:27.261Z,945.5
2016-06-02T01:54:37.873Z,945.6
2016-06-02T01:54:48.030Z,945.6
2016-06-02T01:54:57.858Z,945.6
2016-06-02T01:55:07.014Z,945.6
2016-06-02T01:55:17.873Z,945.5
2016-06-02T01:55:27.326Z,945.6
2016-06-02T01:55:37.141Z,945.6
2016-06-02T01:55:47.266Z,945.6
2016-06-02T01:55:57.500Z,945.6
2016-06-02T01:56:07.407Z,945.6
2016-06-02T01:56:17.375Z,945.6
2016-06-02T01:56:27.235Z,945.7
2016-06-02T01:56:37.239Z,945.7
2016-06-02T01:56:47.395Z,945.7
2016-06-02T01:56:57.379Z,945.7
2016-06-02T01:57:07.364Z,945.7
2016-06-02T01:57:17.223Z,945.7
2016-06-02T01:57:27.364Z,945.8
2016-06-02T01:57:37.380Z,945.7
2016-06-02T01:57:47.224Z,945.7
2016-06-02T01:57:57.365Z,945.7
2016-06-02T01:58:07.380Z,945.7
2016-06-02T01:58:17.333Z,945.8
2016-06-02T01:58:27.365Z,945.7
2016-06-02T01:58:37.353Z,945.7
2016-06-02T01:58:47.337Z,945.8
2016-06-02T01:58:57.337Z,945.8
2016-06-02T01:59:07.353Z,945.8
2016-06-02T01:59:17.353Z,945.8
2016-06-02T01:59:27.353Z,945.8
2016-06-02T01:59:37.183Z,945.8
2016-06-02T01:59:47.214Z,945.9
2016-06-02T01:59:57.324Z,945.9
2016-06-02T02:00:07.324Z,945.8
2016-06-02T02:00:17.339Z,945.8
2016-06-02T02:00:27.308Z,945.9
2016-06-02T02:00:37.327Z,945.9
2016-06-02T02:00:47.327Z,945.9
2016-06-02T02:00:57.014Z,945.9
2016-06-02T02:01:07.327Z,945.9
2016-06-02T02:01:17.155Z,945.9
2016-06-02T02:01:27.171Z,946
2016-06-02T02:01:37.001Z,946
2016-06-02T02:01:47.313Z,946
2016-06-02T02:01:57.329Z,945.9
2016-06-02T02:02:07.298Z,945.9
2016-06-02T02:02:17.157Z,946
2016-06-02T02:02:27.016Z,945.9
2016-06-02T02:02:37.301Z,946
2016-06-02T02:02:47.144Z,946.1
2016-06-02T02:02:57.301Z,946.1
2016-06-02T02:03:07.301Z,946
2016-06-02T02:03:17.301Z,946.1
2016-06-02T02:03:27.285Z,946.1
2016-06-02T02:03:37.147Z,946
2016-06-02T02:03:47.132Z,946.1
2016-06-02T02:03:57.132Z,946.1
2016-06-02T02:04:07.272Z,946.2
2016-06-02T02:04:17.272Z,946.2
2016-06-02T02:04:27.272Z,946.2
2016-06-02T02:04:37.119Z,946.2
2016-06-02T02:04:47.291Z,946.2
2016-06-02T02:04:57.275Z,946.2
2016-06-02T02:05:07.291Z,946.2
2016-06-02T02:05:17.135Z,946.3
2016-06-02T02:05:27.291Z,946.3
2016-06-02T02:05:37.262Z,946.3
2016-06-02T02:05:47.246Z,946.3
2016-06-02T02:05:57.262Z,946.3
2016-06-02T02:06:07.230Z,946.3
2016-06-02T02:06:16.949Z,946.3
2016-06-02T02:06:27.262Z,946.3
2016-06-02T02:06:37.093Z,946.4
2016-06-02T02:06:47.249Z,946.4
2016-06-02T02:06:57.233Z,946.3
2016-06-02T02:07:07.233Z,946.5
2016-06-02T02:07:17.233Z,946.4
2016-06-02T02:07:27.233Z,946.4
2016-06-02T02:07:37.235Z,946.4
2016-06-02T02:07:47.079Z,946.4
2016-06-02T02:07:57.251Z,946.4
2016-06-02T02:08:07.235Z,946.5
2016-06-02T02:08:17.064Z,946.5
2016-06-02T02:08:27.220Z,946.5
2016-06-02T02:08:37.224Z,946.5
2016-06-02T02:08:47.224Z,946.6
2016-06-02T02:08:57.208Z,946.5